Time;durP1;ratioP1;P1;durP2;ratioP2;P2;SDS_P1;SDS_P2;PMS_P1;PMS_P2;Temp;Humidity;BMP_temperature;BMP_pressure;BME280_temperature;BME280_humidity;BME280_pressure;Samples;Min_cycle;Max_cycle;Signal;HPM_P1;HPM_P2
2021/12/12 00:02:05;;;;;;;10.23;6.08;;;;;;;9.92;68.43;101003.08;1730416;81;21042;-57
2021/12/12 00:04:32;;;;;;;11.25;6.53;;;;;;;9.92;68.15;101014.05;1730531;80;21140;-57
2021/12/12 00:06:56;;;;;;;11.00;6.58;;;;;;;9.86;68.17;101014.00;1702272;82;21128;-57
2021/12/12 00:09:27;;;;;;;11.15;6.25;;;;;;;9.84;68.21;101005.38;1706983;82;21556;-56
2021/12/12 00:11:54;;;;;;;10.82;6.03;;;;;;;9.79;67.97;101019.30;1736337;81;21106;-57
2021/12/12 00:14:29;;;;;;;10.03;5.28;;;;;;;9.77;68.07;101018.09;1733654;80;21034;-57
2021/12/12 00:16:56;;;;;;;9.23;5.20;;;;;;;9.84;67.97;101019.84;1731896;80;21128;-57
2021/12/12 00:19:23;;;;;;;9.58;6.42;;;;;;;9.86;67.96;101017.94;1729504;80;21494;-57
2021/12/12 00:21:51;;;;;;;9.85;6.37;;;;;;;9.88;68.04;101012.59;1734162;80;20995;-57
2021/12/12 00:24:18;;;;;;;10.93;6.47;;;;;;;9.88;68.05;101020.47;1729775;82;21479;-57
2021/12/12 00:26:47;;;;;;;10.68;6.05;;;;;;;9.84;68.10;101032.98;1733269;81;21139;-57
2021/12/12 00:29:14;;;;;;;12.15;6.55;;;;;;;9.83;68.02;101045.30;1704744;82;21134;-57
2021/12/12 00:31:41;;;;;;;10.48;6.35;;;;;;;9.81;68.09;101039.75;1733146;81;21067;-56
2021/12/12 00:34:07;;;;;;;10.20;5.78;;;;;;;9.79;67.85;101031.13;1736551;80;21042;-57
2021/12/12 00:36:34;;;;;;;9.38;6.30;;;;;;;9.72;67.77;101024.61;1733462;81;21047;-56
2021/12/12 00:39:10;;;;;;;9.20;5.90;;;;;;;9.64;67.92;101024.62;1726877;81;21141;-57
2021/12/12 00:41:44;;;;;;;9.30;5.58;;;;;;;9.61;67.82;101027.92;1724829;81;21121;-57
2021/12/12 00:44:12;;;;;;;10.40;6.62;;;;;;;9.63;67.85;101026.89;1724726;81;21093;-57
2021/12/12 00:46:39;;;;;;;9.45;5.70;;;;;;;9.69;67.84;101030.89;1704576;82;21632;-57
2021/12/12 00:49:06;;;;;;;10.43;6.03;;;;;;;9.69;68.00;101028.75;1705701;82;21053;-57
2021/12/12 00:51:35;;;;;;;8.55;5.58;;;;;;;9.70;68.26;101033.04;1707220;81;21103;-56
2021/12/12 00:54:03;;;;;;;9.00;5.30;;;;;;;9.71;67.97;101032.11;1711957;82;21215;-57
2021/12/12 00:56:30;;;;;;;9.35;5.37;;;;;;;9.66;67.86;101028.46;1724873;82;20940;-56
2021/12/12 00:58:56;;;;;;;10.18;5.12;;;;;;;9.62;67.84;101030.94;1686106;82;21145;-57
2021/12/12 01:01:33;;;;;;;9.23;4.85;;;;;;;9.57;67.99;101033.02;1725394;82;21793;-56
2021/12/12 01:04:05;;;;;;;13.08;6.58;;;;;;;9.53;67.89;101036.33;1724176;81;21041;-57
2021/12/12 01:06:32;;;;;;;9.20;5.53;;;;;;;9.47;67.81;101047.22;1728004;81;21223;-57
2021/12/12 01:09:00;;;;;;;9.80;5.45;;;;;;;9.46;67.71;101035.02;1722586;81;21032;-57
2021/12/12 01:11:34;;;;;;;8.28;4.83;;;;;;;9.51;67.53;101038.19;1703348;82;21022;-57
2021/12/12 01:14:02;;;;;;;10.10;5.28;;;;;;;9.52;67.65;101049.08;1719092;81;21508;-57
2021/12/12 01:16:43;;;;;;;10.63;5.78;;;;;;;9.51;67.63;101051.80;1716424;82;21059;-57
2021/12/12 01:19:15;;;;;;;9.60;5.28;;;;;;;9.45;67.85;101062.25;1725088;81;21185;-57
2021/12/12 01:21:46;;;;;;;10.78;5.60;;;;;;;9.39;68.06;101071.34;1716264;81;21012;-57
2021/12/12 01:24:21;;;;;;;9.03;5.40;;;;;;;9.33;68.20;101067.82;1681139;83;21029;-57
2021/12/12 01:26:48;;;;;;;10.23;5.58;;;;;;;9.29;68.38;101061.89;1724983;82;21770;-57
2021/12/12 01:29:15;;;;;;;8.50;5.33;;;;;;;9.25;68.34;101069.61;1712028;81;21694;-57
2021/12/12 01:31:48;;;;;;;8.35;5.10;;;;;;;9.20;68.49;101067.74;1717440;82;21360;-56
2021/12/12 01:34:15;;;;;;;8.83;4.67;;;;;;;9.15;68.59;101055.86;1730868;81;21068;-57
2021/12/12 01:36:58;;;;;;;11.40;4.60;;;;;;;9.18;68.59;101060.89;1731709;81;21052;-57
2021/12/12 01:39:20;;;;;;;7.78;4.30;;;;;;;9.26;68.44;101068.68;1728046;81;21095;-57
2021/12/12 01:42:06;;;;;;;7.80;4.60;;;;;;;9.32;68.34;101070.55;1731280;81;21555;-57
2021/12/12 01:44:37;;;;;;;;;;;;;;;9.33;68.32;101080.95;1737840;80;21538;-57
2021/12/12 01:47:14;;;;;;;9.33;5.12;;;;;;;9.32;68.43;101072.69;1737426;81;20167;-57
2021/12/12 01:49:45;;;;;;;8.28;4.92;;;;;;;9.25;68.47;101068.77;1728927;80;21074;-57
2021/12/12 01:52:16;;;;;;;10.13;4.78;;;;;;;9.19;68.60;101069.16;1706330;82;21072;-57
2021/12/12 01:54:46;;;;;;;8.30;4.53;;;;;;;9.15;68.60;101074.23;1729824;80;21103;-56
2021/12/12 01:57:17;;;;;;;11.40;5.10;;;;;;;9.11;68.82;101075.73;1732838;81;21142;-57
2021/12/12 01:59:44;;;;;;;7.65;4.17;;;;;;;9.07;68.78;101075.54;1734538;81;21050;-57
2021/12/12 02:02:15;;;;;;;7.85;4.25;;;;;;;9.04;68.83;101080.14;1727177;80;21627;-56
2021/12/12 02:04:47;;;;;;;7.05;3.75;;;;;;;9.06;68.68;101077.81;1728804;80;21564;-57
2021/12/12 02:07:17;;;;;;;7.70;4.33;;;;;;;9.13;68.61;101070.84;1733141;80;21059;-57
2021/12/12 02:09:44;;;;;;;7.28;4.25;;;;;;;9.19;68.57;101076.55;1728995;81;22417;-57
2021/12/12 02:12:11;;;;;;;8.73;4.35;;;;;;;9.20;68.66;101074.31;1735970;82;21055;-57
2021/12/12 02:14:40;;;;;;;7.55;4.60;;;;;;;9.19;68.74;101082.28;1732063;80;21067;-58
2021/12/12 02:17:25;;;;;;;8.30;4.75;;;;;;;9.19;68.85;101089.68;1734072;81;21028;-56
2021/12/12 02:20:05;;;;;;;8.78;4.67;;;;;;;9.20;68.90;101085.30;1731310;80;21058;-56
2021/12/12 02:35:48;;;;;;;8.20;4.25;;;;;;;9.24;68.83;101082.83;1733626;81;21102;-58
2021/12/12 02:38:24;;;;;;;9.98;5.00;;;;;;;9.31;68.76;101086.75;1735937;81;21386;-57
2021/12/12 02:40:58;;;;;;;7.92;4.40;;;;;;;9.36;68.97;101088.61;1730655;80;21090;-57
2021/12/12 02:43:26;;;;;;;8.65;4.47;;;;;;;9.38;69.13;101087.20;1729032;81;21072;-58
2021/12/12 02:45:56;;;;;;;7.50;4.62;;;;;;;9.38;69.03;101089.38;1733035;81;21016;-58
2021/12/12 02:48:28;;;;;;;8.88;4.60;;;;;;;9.40;69.26;101091.91;1736627;81;21152;-57
2021/12/12 02:50:56;;;;;;;7.40;4.40;;;;;;;9.40;69.06;101091.91;1707701;81;22232;-57
2021/12/12 02:53:36;;;;;;;9.10;4.87;;;;;;;9.38;69.15;101095.95;1731584;80;21029;-57
2021/12/12 02:56:10;;;;;;;9.00;4.60;;;;;;;9.35;68.99;101097.45;1706417;82;21999;-57
2021/12/12 02:58:36;;;;;;;7.75;4.12;;;;;;;9.33;68.91;101087.52;1728664;81;21526;-57
2021/12/12 03:01:17;;;;;;;7.75;4.10;;;;;;;9.38;68.95;101092.45;1735770;81;21142;-57
2021/12/12 03:03:45;;;;;;;9.73;4.92;;;;;;;9.39;69.21;101088.42;1734006;80;21019;-57
2021/12/12 03:06:16;;;;;;;7.85;4.47;;;;;;;9.42;69.39;101080.83;1732994;82;21705;-57
2021/12/12 03:08:44;;;;;;;9.38;4.80;;;;;;;9.41;69.55;101093.58;1731076;82;21130;-57
2021/12/12 03:11:11;;;;;;;9.98;5.75;;;;;;;9.38;69.64;101092.00;1730713;81;21080;-57
2021/12/12 03:13:38;;;;;;;11.93;5.53;;;;;;;9.39;69.80;101097.61;1732324;80;21993;-57
2021/12/12 03:16:05;;;;;;;14.20;5.85;;;;;;;9.40;69.87;101098.48;1670647;84;21075;-57
2021/12/12 03:18:39;;;;;;;11.30;5.47;;;;;;;9.37;69.83;101103.44;1729265;81;21505;-57
2021/12/12 03:21:14;;;;;;;11.90;5.35;;;;;;;9.31;69.91;101101.19;1702842;82;21059;-58
2021/12/12 03:23:35;;;;;;;14.18;5.75;;;;;;;9.30;69.84;101099.05;1735620;81;21086;-57
2021/12/12 03:26:08;;;;;;;17.48;5.87;;;;;;;9.37;70.07;101100.81;1705001;81;21095;-57
2021/12/12 03:28:37;;;;;;;14.75;6.70;;;;;;;9.44;70.22;101095.53;1733165;81;20971;-57
2021/12/12 03:31:08;;;;;;;12.18;5.30;;;;;;;9.48;70.23;101100.98;1733933;81;21086;-57
2021/12/12 03:33:34;;;;;;;12.75;6.03;;;;;;;9.47;70.27;101105.02;1731496;81;21561;-57
2021/12/12 03:36:07;;;;;;;11.05;5.65;;;;;;;9.44;70.51;101114.40;1729806;80;21002;-57
2021/12/12 03:38:35;;;;;;;12.23;6.12;;;;;;;9.40;70.62;101111.13;1727540;80;21193;-57
2021/12/12 03:41:07;;;;;;;13.75;6.22;;;;;;;9.39;70.72;101116.00;1731314;80;21058;-58
2021/12/12 03:43:34;;;;;;;12.82;5.72;;;;;;;9.38;70.81;101120.90;1714582;81;21078;-57
2021/12/12 03:46:01;;;;;;;12.03;5.37;;;;;;;9.42;70.63;101120.23;1710910;81;21118;-58
2021/12/12 03:48:31;;;;;;;12.13;5.53;;;;;;;9.46;70.50;101116.45;1711263;81;21076;-57
2021/12/12 03:51:01;;;;;;;15.08;6.65;;;;;;;9.48;70.56;101118.06;1704754;81;21102;-57
2021/12/12 03:53:28;;;;;;;11.90;5.80;;;;;;;9.48;70.58;101114.56;1708754;81;21120;-57
2021/12/12 03:55:55;;;;;;;11.18;6.40;;;;;;;9.42;70.73;101120.23;1717576;81;21547;-57
2021/12/12 03:58:22;;;;;;;12.63;6.75;;;;;;;9.37;70.99;101120.99;1715578;82;21782;-58
2021/12/12 04:01:00;;;;;;;11.95;6.25;;;;;;;9.32;71.04;101118.65;1697122;82;21089;-58
2021/12/12 04:03:27;;;;;;;14.10;6.70;;;;;;;9.23;71.01;101121.84;1698131;82;21270;-57
2021/12/12 04:05:58;;;;;;;9.98;5.60;;;;;;;9.13;71.14;101122.04;1691648;82;21482;-57
2021/12/12 04:08:30;;;;;;;10.25;5.25;;;;;;;9.11;71.24;101124.31;1723701;82;21034;-57
2021/12/12 04:10:57;;;;;;;13.85;6.55;;;;;;;9.14;71.09;101128.98;1695351;82;21118;-57
2021/12/12 04:13:24;;;;;;;13.68;7.08;;;;;;;9.15;71.36;101125.44;1727369;81;21172;-57
2021/12/12 04:15:52;;;;;;;12.85;6.80;;;;;;;9.15;71.21;101130.69;1694466;82;21827;-57
2021/12/12 04:18:25;;;;;;;13.35;7.20;;;;;;;9.09;71.31;101124.88;1720728;82;21061;-57
2021/12/12 04:20:54;;;;;;;13.68;7.70;;;;;;;9.03;71.43;101121.31;1725697;81;21097;-57
2021/12/12 04:23:23;;;;;;;13.32;6.92;;;;;;;8.99;71.45;101123.73;1694219;82;21136;-57
2021/12/12 04:25:51;;;;;;;13.98;7.60;;;;;;;8.96;71.77;101123.09;1723939;81;21149;-57
2021/12/12 04:28:18;;;;;;;11.63;7.35;;;;;;;8.94;71.71;101127.11;1712243;81;21138;-57
2021/12/12 04:30:44;;;;;;;15.05;7.97;;;;;;;8.98;71.69;101128.63;1709432;81;21519;-57
2021/12/12 04:33:11;;;;;;;11.90;7.15;;;;;;;9.05;71.35;101126.47;1684961;81;21101;-57
2021/12/12 04:35:38;;;;;;;14.07;8.35;;;;;;;9.08;71.16;101127.59;1685269;81;21630;-58
2021/12/12 04:38:05;;;;;;;15.40;8.65;;;;;;;9.07;71.23;101130.67;1715517;81;21097;-57
2021/12/12 04:40:34;;;;;;;15.83;8.55;;;;;;;9.04;71.41;101123.45;1711744;82;23121;-57
2021/12/12 04:43:00;;;;;;;13.75;8.20;;;;;;;9.01;71.41;101131.07;1722821;82;21674;-57
2021/12/12 04:46:03;;;;;;;16.35;8.53;;;;;;;8.99;71.50;101121.59;1724719;81;21136;-57
2021/12/12 04:51:31;;;;;;;13.48;7.55;;;;;;;8.93;71.60;101129.38;1724515;81;21065;-56
2021/12/12 04:54:31;;;;;;;13.18;7.60;;;;;;;8.96;71.39;101130.52;1724331;81;21104;-57
2021/12/12 04:57:10;;;;;;;13.10;7.53;;;;;;;9.04;71.15;101130.86;1725768;81;21020;-57
2021/12/12 04:59:49;;;;;;;15.58;9.00;;;;;;;9.07;71.18;101126.73;1715717;81;21058;-58
2021/12/12 05:02:27;;;;;;;15.28;8.83;;;;;;;9.10;71.48;101125.23;1728086;81;21158;-58
2021/12/12 05:05:08;;;;;;;15.88;9.53;;;;;;;9.13;71.46;101127.29;1713282;81;21440;-58
2021/12/12 05:07:40;;;;;;;14.47;8.98;;;;;;;9.11;71.50;101126.94;1723482;81;21298;-58
2021/12/12 05:10:14;;;;;;;18.90;9.08;;;;;;;9.11;71.51;101128.25;1685242;82;21090;-57
2021/12/12 05:12:45;;;;;;;16.95;9.83;;;;;;;9.08;71.43;101127.12;1703866;82;21040;-57
2021/12/12 05:15:22;;;;;;;16.15;8.88;;;;;;;9.03;71.26;101134.44;1721434;81;21063;-56
2021/12/12 05:17:53;;;;;;;13.80;8.43;;;;;;;9.02;71.23;101131.91;1724358;81;21532;-57
2021/12/12 05:20:23;;;;;;;15.03;8.43;;;;;;;9.06;70.96;101136.02;1721070;81;21104;-57
2021/12/12 05:22:52;;;;;;;14.20;8.13;;;;;;;9.08;70.97;101138.10;1722856;81;21082;-58
2021/12/12 05:25:25;;;;;;;16.57;8.90;;;;;;;9.10;71.29;101143.62;1724170;81;21035;-58
2021/12/12 05:27:54;;;;;;;14.07;9.30;;;;;;;9.13;71.52;101146.98;1724758;81;21055;-58
2021/12/12 05:30:31;;;;;;;15.55;8.68;;;;;;;9.15;71.49;101147.28;1722034;82;21130;-58
2021/12/12 05:32:58;;;;;;;17.05;9.93;;;;;;;9.13;71.26;101152.23;1723986;82;21090;-59
2021/12/12 05:35:27;;;;;;;20.77;10.45;;;;;;;9.10;71.12;101157.22;1724911;81;20999;-59
2021/12/12 05:37:55;;;;;;;15.23;9.18;;;;;;;9.06;71.02;101153.95;1718990;81;21077;-57
2021/12/12 05:40:24;;;;;;;16.75;9.55;;;;;;;9.09;70.98;101156.39;1695571;82;21110;-57
2021/12/12 05:42:53;;;;;;;17.10;8.05;;;;;;;9.19;70.65;101162.37;1730832;80;21062;-58
2021/12/12 05:45:19;;;;;;;15.75;9.18;;;;;;;9.24;70.29;101158.98;1695481;82;21175;-56
2021/12/12 05:47:46;;;;;;;15.50;9.65;;;;;;;9.22;70.27;101157.77;1727348;80;21742;-57
2021/12/12 05:50:14;;;;;;;19.23;10.28;;;;;;;9.20;70.20;101167.53;1731463;81;22051;-57
2021/12/12 05:52:42;;;;;;;17.50;10.60;;;;;;;9.17;70.17;101174.76;1734714;80;22281;-58
2021/12/12 05:57:44;;;;;;;16.23;9.53;;;;;;;9.06;69.90;101189.39;1780328;78;22172;-58
2021/12/12 06:00:14;;;;;;;20.88;10.72;;;;;;;8.91;69.97;101187.22;1740655;80;21065;-59
2021/12/12 06:02:42;;;;;;;18.32;9.08;;;;;;;8.86;70.12;101186.66;1743602;80;21769;-57
2021/12/12 06:05:08;;;;;;;15.23;8.38;;;;;;;8.85;70.07;101191.99;1746506;80;21029;-58
2021/12/12 06:07:35;;;;;;;15.45;8.25;;;;;;;8.89;69.80;101198.73;1747471;80;21350;-58
2021/12/12 06:10:07;;;;;;;13.60;8.08;;;;;;;8.89;69.70;101195.66;1746127;80;20926;-58
2021/12/12 06:12:34;;;;;;;14.83;8.50;;;;;;;8.93;69.92;101195.00;1741948;80;21561;-57
2021/12/12 06:15:07;;;;;;;15.60;9.13;;;;;;;8.93;69.93;101206.81;1747449;81;20912;-59
2021/12/12 06:17:35;;;;;;;16.60;8.30;;;;;;;8.89;69.75;101218.41;1747409;81;20871;-58
2021/12/12 06:20:01;;;;;;;15.50;8.45;;;;;;;8.83;69.70;101222.26;1748274;80;20903;-58
2021/12/12 06:22:28;;;;;;;14.43;8.68;;;;;;;8.77;69.65;101221.78;1740472;80;20967;-58
2021/12/12 06:24:54;;;;;;;15.10;9.03;;;;;;;8.68;69.88;101222.69;1718290;82;20996;-59
2021/12/12 06:27:21;;;;;;;15.65;8.33;;;;;;;8.65;70.04;101233.36;1707414;82;21933;-58
2021/12/12 06:29:51;;;;;;;14.15;7.87;;;;;;;8.67;70.00;101230.17;1708256;83;20995;-56
2021/12/12 06:32:18;;;;;;;13.65;6.60;;;;;;;8.77;69.81;101233.58;1687971;83;22448;-59
2021/12/12 06:34:45;;;;;;;14.35;8.03;;;;;;;8.81;69.66;101232.02;1710790;82;21059;-57
2021/12/12 06:37:12;;;;;;;12.58;7.67;;;;;;;8.83;69.48;101230.61;1714125;82;21972;-57
2021/12/12 06:39:38;;;;;;;12.33;7.10;;;;;;;8.79;69.68;101240.89;1714723;82;21108;-57
2021/12/12 06:42:06;;;;;;;13.72;8.65;;;;;;;8.76;69.62;101248.94;1687734;83;20996;-57
2021/12/12 06:44:32;;;;;;;15.50;8.15;;;;;;;8.68;69.49;101255.48;1683289;83;21058;-57
2021/12/12 06:47:03;;;;;;;12.88;7.08;;;;;;;8.60;69.57;101260.33;1679358;83;21865;-58
2021/12/12 06:49:27;;;;;;;13.50;7.92;;;;;;;8.54;69.72;101264.64;1709161;82;21165;-57
2021/12/12 06:51:57;;;;;;;11.97;6.25;;;;;;;8.49;69.88;101273.21;1683333;82;21223;-57
2021/12/12 06:54:26;;;;;;;12.70;6.22;;;;;;;8.49;69.79;101268.83;1708749;82;21000;-55
2021/12/12 06:56:54;;;;;;;10.93;5.80;;;;;;;8.56;69.44;101260.14;1703752;82;21513;-58
2021/12/12 06:59:22;;;;;;;10.58;6.28;;;;;;;8.60;69.53;101260.33;1715478;82;20959;-58
2021/12/12 07:01:50;;;;;;;11.05;7.10;;;;;;;8.62;69.45;101263.70;1714714;82;21038;-58
2021/12/12 07:04:18;;;;;;;12.00;7.22;;;;;;;8.60;69.46;101264.27;1687563;83;21769;-58
2021/12/12 07:06:46;;;;;;;12.13;7.30;;;;;;;8.56;69.42;101258.83;1705922;82;21940;-58
2021/12/12 07:09:13;;;;;;;14.10;6.87;;;;;;;8.49;69.26;101247.84;1706149;82;21998;-59
2021/12/12 07:11:40;;;;;;;14.00;6.92;;;;;;;8.44;69.26;101254.27;1659846;83;21128;-59
2021/12/12 07:14:07;;;;;;;11.15;7.00;;;;;;;8.37;69.26;101255.05;1701986;83;21035;-59
2021/12/12 07:16:34;;;;;;;13.78;7.30;;;;;;;8.31;69.30;101258.88;1700110;83;21045;-59
2021/12/12 07:19:00;;;;;;;12.07;6.55;;;;;;;8.26;69.25;101264.02;1703267;82;21008;-59
2021/12/12 07:21:28;;;;;;;13.03;6.70;;;;;;;8.24;69.05;101271.97;1701963;83;21446;-59
2021/12/12 07:23:55;;;;;;;9.83;5.55;;;;;;;8.29;68.80;101266.47;1674185;83;21001;-59
2021/12/12 07:26:22;;;;;;;9.50;5.28;;;;;;;8.30;68.62;101275.53;1703370;83;20980;-59
2021/12/12 07:28:48;;;;;;;10.40;5.55;;;;;;;8.28;68.71;101283.12;1701893;83;21077;-58
2021/12/12 07:31:19;;;;;;;10.50;5.37;;;;;;;8.22;68.87;101286.94;1697732;83;21082;-59
2021/12/12 07:33:49;;;;;;;11.68;6.28;;;;;;;8.18;69.05;101282.78;1700183;83;20995;-59
2021/12/12 07:36:16;;;;;;;10.70;5.80;;;;;;;8.16;69.14;101281.55;1698900;82;21027;-59
2021/12/12 07:38:45;;;;;;;11.15;5.95;;;;;;;8.14;69.06;101280.80;1703163;83;21637;-59
2021/12/12 07:41:12;;;;;;;11.38;5.97;;;;;;;8.10;68.92;101282.36;1677790;83;22071;-59
2021/12/12 07:43:39;;;;;;;10.15;5.97;;;;;;;8.00;68.82;101276.33;1697924;83;21078;-59
2021/12/12 07:46:06;;;;;;;9.98;5.75;;;;;;;7.92;69.01;101272.45;1711142;82;21077;-59
2021/12/12 07:48:35;;;;;;;13.60;5.40;;;;;;;7.93;69.07;101274.95;1689893;84;21608;-59
2021/12/12 07:51:03;;;;;;;10.48;5.15;;;;;;;8.03;68.75;101284.47;1658469;83;21593;-59
2021/12/12 07:53:29;;;;;;;10.75;5.85;;;;;;;8.06;68.60;101294.80;1689093;83;21136;-59
2021/12/12 07:55:56;;;;;;;11.83;6.37;;;;;;;8.05;68.55;101300.95;1687716;83;21130;-60
2021/12/12 07:58:24;;;;;;;12.75;6.45;;;;;;;7.97;68.64;101300.08;1701295;82;21117;-57
2021/12/12 08:00:52;;;;;;;12.58;7.00;;;;;;;7.93;68.77;101295.08;1739298;81;21538;-58
2021/12/12 08:03:26;;;;;;;11.48;6.65;;;;;;;7.84;68.74;101300.36;1716991;81;21106;-59
2021/12/12 08:05:52;;;;;;;13.72;6.75;;;;;;;7.74;68.79;101304.41;1740522;80;21114;-58
2021/12/12 08:08:19;;;;;;;13.68;7.67;;;;;;;7.62;69.04;101297.57;1745237;81;21102;-58
2021/12/12 08:10:46;;;;;;;13.80;7.08;;;;;;;7.57;69.35;101298.76;1741196;80;21091;-59
2021/12/12 08:13:13;;;;;;;11.63;6.53;;;;;;;7.59;69.47;101299.04;1742424;81;21647;-58
2021/12/12 08:15:40;;;;;;;12.55;6.22;;;;;;;7.72;69.24;101308.89;1738215;80;21110;-59
2021/12/12 08:18:08;;;;;;;13.48;6.20;;;;;;;7.78;69.14;101311.16;1741490;81;21141;-58
2021/12/12 08:20:35;;;;;;;13.93;7.20;;;;;;;7.80;69.24;101313.23;1739291;81;21552;-59
2021/12/12 08:23:01;;;;;;;13.50;6.97;;;;;;;7.79;69.54;101313.70;1743602;80;20953;-59
2021/12/12 08:25:28;;;;;;;13.32;7.20;;;;;;;7.78;69.30;101308.54;1741167;80;21075;-58
2021/12/12 08:27:57;;;;;;;12.95;7.67;;;;;;;7.72;69.38;101301.03;1739627;80;21000;-59
2021/12/12 08:30:24;;;;;;;12.28;7.33;;;;;;;7.70;69.39;101302.86;1684856;82;21134;-59
2021/12/12 08:32:50;;;;;;;12.90;7.03;;;;;;;7.65;69.27;101308.81;1745883;80;20864;-59
2021/12/12 08:35:18;;;;;;;13.28;7.37;;;;;;;7.61;69.31;101304.20;1739251;80;22263;-59
2021/12/12 08:37:46;;;;;;;13.40;7.25;;;;;;;7.54;69.34;101308.91;1739883;80;21822;-58
2021/12/12 08:40:18;;;;;;;13.40;6.85;;;;;;;7.53;69.35;101308.55;1735593;80;21038;-58
2021/12/12 08:42:47;;;;;;;11.93;6.42;;;;;;;7.58;69.26;101305.67;1691647;83;20993;-58
2021/12/12 08:45:17;;;;;;;11.65;6.25;;;;;;;7.64;69.41;101307.97;1720396;82;21067;-58
2021/12/12 08:47:44;;;;;;;11.08;6.17;;;;;;;7.65;69.27;101298.33;1744513;81;20956;-58
2021/12/12 08:50:13;;;;;;;10.05;5.67;;;;;;;7.64;69.52;101298.80;1736767;81;20967;-59
2021/12/12 08:52:42;;;;;;;11.78;5.90;;;;;;;7.62;69.52;101308.53;1743977;80;21521;-58
2021/12/12 08:55:18;;;;;;;12.25;5.72;;;;;;;7.58;69.71;101302.61;1742505;80;21097;-59
2021/12/12 08:57:47;;;;;;;11.33;6.28;;;;;;;7.59;69.59;101299.52;1716660;81;21059;-59
2021/12/12 09:00:17;;;;;;;10.78;5.58;;;;;;;7.53;69.52;101298.52;1680458;82;21528;-59
2021/12/12 09:02:43;;;;;;;7.85;4.75;;;;;;;7.47;69.74;101298.86;1707497;82;21052;-59
2021/12/12 09:05:14;;;;;;;10.80;4.87;;;;;;;7.43;69.74;101299.45;1723899;81;20964;-58
2021/12/12 09:07:44;;;;;;;8.18;3.90;;;;;;;7.45;69.55;101302.87;1708952;82;22238;-59
2021/12/12 09:10:26;;;;;;;8.20;3.58;;;;;;;7.49;69.26;101308.78;1743786;80;21165;-58
2021/12/12 09:13:12;;;;;;;9.05;4.97;;;;;;;7.50;69.30;101306.09;1738378;80;20995;-58
2021/12/12 09:15:49;;;;;;;10.45;5.60;;;;;;;7.50;69.35;101299.98;1723735;80;21024;-57
2021/12/12 09:18:30;;;;;;;12.07;5.47;;;;;;;7.43;69.47;101307.31;1732852;80;21090;-57
2021/12/12 09:21:09;;;;;;;10.00;5.53;;;;;;;7.35;69.79;101307.73;1719142;80;21699;-58
2021/12/12 09:23:52;;;;;;;14.95;7.85;;;;;;;7.30;69.96;101308.43;1733698;80;21332;-57
2021/12/12 09:26:23;;;;;;;11.25;6.17;;;;;;;7.27;70.00;101307.75;1740887;80;21090;-57
2021/12/12 09:29:04;;;;;;;10.43;5.97;;;;;;;7.17;69.95;101301.66;1739967;80;20996;-57
2021/12/12 09:31:38;;;;;;;10.43;5.72;;;;;;;7.11;70.23;101300.68;1739557;80;21096;-57
2021/12/12 09:34:09;;;;;;;11.75;6.00;;;;;;;7.14;70.26;101300.97;1721602;80;21046;-58
2021/12/12 09:36:54;;;;;;;11.00;5.90;;;;;;;7.25;70.05;101294.27;1742276;80;21148;-58
2021/12/12 09:39:32;;;;;;;13.50;6.67;;;;;;;7.35;69.85;101293.80;1736777;80;21050;-58
2021/12/12 09:42:25;;;;;;;12.37;7.17;;;;;;;7.38;69.85;101290.55;1722009;80;20995;-58
2021/12/12 09:45:11;;;;;;;14.03;6.33;;;;;;;7.38;69.80;101289.69;1706043;83;21072;-58
2021/12/12 09:48:25;;;;;;;11.20;5.92;;;;;;;7.36;69.82;101302.02;1743532;80;21138;-58
2021/12/12 09:51:16;;;;;;;13.72;6.20;;;;;;;7.31;69.79;101297.48;1737775;80;21047;-58
2021/12/12 09:53:58;;;;;;;12.00;5.47;;;;;;;7.28;69.55;101295.89;1703729;82;21566;-58
2021/12/12 09:56:51;;;;;;;9.90;5.08;;;;;;;7.22;69.41;101294.41;1743488;80;21074;-58
2021/12/12 09:59:54;;;;;;;10.15;5.65;;;;;;;7.17;69.48;101289.88;1719176;80;21116;-58
2021/12/12 10:02:40;;;;;;;9.98;4.65;;;;;;;7.13;69.29;101290.11;1743835;80;21180;-58
2021/12/12 10:05:53;;;;;;;9.35;4.37;;;;;;;7.13;69.13;101297.52;1744712;80;21682;-57
2021/12/12 10:09:08;;;;;;;7.70;4.05;;;;;;;7.22;69.07;101301.43;1740729;80;21067;-58
2021/12/12 10:12:08;;;;;;;8.43;4.42;;;;;;;7.29;69.08;101300.66;1743882;80;21094;-59
2021/12/12 10:15:05;;;;;;;9.90;4.40;;;;;;;7.30;69.34;101290.58;1742053;80;21097;-58
2021/12/12 10:17:42;;;;;;;9.68;5.03;;;;;;;7.30;69.28;101287.95;1738639;80;21722;-58
2021/12/12 10:20:15;;;;;;;9.20;5.05;;;;;;;7.28;69.10;101281.93;1725605;81;21063;-57
2021/12/12 10:23:06;;;;;;;10.45;5.75;;;;;;;7.24;69.09;101279.47;1738865;80;20987;-58
2021/12/12 10:26:04;;;;;;;10.15;4.12;;;;;;;7.24;69.08;101281.25;1724940;80;21209;-57
2021/12/12 10:28:35;;;;;;;9.15;4.75;;;;;;;7.18;69.06;101281.11;1709009;82;21034;-59
2021/12/12 10:31:07;;;;;;;10.13;4.58;;;;;;;7.16;69.00;101284.28;1704236;82;21115;-58
2021/12/12 10:34:01;;;;;;;7.17;3.72;;;;;;;7.13;69.05;101283.12;1743842;80;21059;-58
2021/12/12 10:36:35;;;;;;;9.23;4.90;;;;;;;7.17;68.97;101279.41;1710820;80;21439;-58
2021/12/12 10:39:10;;;;;;;9.13;4.70;;;;;;;7.32;68.78;101287.41;1742246;80;22278;-58
2021/12/12 10:41:47;;;;;;;10.88;6.28;;;;;;;7.41;68.56;101290.84;1744483;81;22156;-58
2021/12/12 10:44:21;;;;;;;10.48;6.03;;;;;;;7.44;68.46;101288.06;1751828;80;21166;-59
2021/12/12 10:47:01;;;;;;;14.78;6.83;;;;;;;7.43;68.57;101289.85;1746025;82;21148;-59
2021/12/12 10:49:34;;;;;;;13.85;7.45;;;;;;;7.43;68.49;101285.05;1727241;81;21027;-58
2021/12/12 10:52:16;;;;;;;20.65;11.97;;;;;;;7.38;68.49;101290.55;1739772;80;21736;-58
2021/12/12 10:54:51;;;;;;;21.42;11.48;;;;;;;7.36;68.27;101286.31;1742803;80;21035;-58
2021/12/12 10:57:28;;;;;;;20.35;12.10;;;;;;;7.32;68.10;101280.39;1739102;80;21079;-59
2021/12/12 11:00:12;;;;;;;19.27;11.95;;;;;;;7.24;67.79;101272.92;1718618;81;21046;-59
2021/12/12 11:02:50;;;;;;;19.07;11.20;;;;;;;7.16;67.94;101279.05;1749181;81;20968;-59
2021/12/12 11:05:24;;;;;;;18.10;10.23;;;;;;;7.07;67.84;101278.19;1684797;83;21054;-59
2021/12/12 11:08:17;;;;;;;17.40;10.65;;;;;;;7.01;67.72;101275.44;1706952;82;21588;-59
2021/12/12 11:10:47;;;;;;;16.37;9.70;;;;;;;7.05;67.71;101276.12;1705825;82;21167;-58
2021/12/12 11:13:43;;;;;;;18.48;9.95;;;;;;;7.05;67.75;101264.34;1712635;82;21050;-58
2021/12/12 11:16:45;;;;;;;17.80;11.05;;;;;;;7.05;67.75;101262.56;1712716;82;21078;-57
2021/12/12 11:19:18;;;;;;;17.23;10.43;;;;;;;7.01;67.90;101254.94;1685914;82;21086;-58
2021/12/12 11:21:59;;;;;;;16.35;10.03;;;;;;;6.97;67.93;101258.18;1655547;82;21150;-58
2021/12/12 11:24:30;;;;;;;19.07;10.60;;;;;;;6.90;67.78;101254.19;1682472;83;21167;-58
2021/12/12 11:27:10;;;;;;;19.40;11.33;;;;;;;6.82;67.94;101255.88;1713297;82;21086;-58
2021/12/12 11:29:50;;;;;;;21.45;9.98;;;;;;;6.75;67.99;101264.96;1687952;83;21567;-58
2021/12/12 11:32:21;;;;;;;18.77;11.00;;;;;;;6.71;68.15;101256.90;1712057;82;21721;-59
2021/12/12 11:34:51;;;;;;;13.22;9.13;;;;;;;6.65;68.34;101255.88;1712017;82;21695;-59
2021/12/12 11:37:35;;;;;;;16.17;9.25;;;;;;;6.67;68.31;101250.11;1715035;82;21118;-58
2021/12/12 11:40:11;;;;;;;12.75;8.55;;;;;;;6.75;68.15;101240.11;1712782;82;22246;-57
2021/12/12 11:42:58;;;;;;;19.00;10.82;;;;;;;6.80;68.17;101238.58;1715003;82;21094;-59
2021/12/12 11:45:39;;;;;;;17.27;10.00;;;;;;;6.83;68.20;101234.03;1682089;82;21108;-57
2021/12/12 11:49:01;;;;;;;17.35;9.68;;;;;;;6.81;68.09;101236.36;1714252;82;21625;-57
2021/12/12 11:51:33;;;;;;;16.25;10.32;;;;;;;6.78;68.11;101233.42;1710917;82;22013;-58
2021/12/12 11:54:39;;;;;;;18.12;9.95;;;;;;;6.70;67.99;101237.72;1693105;84;21121;-58
2021/12/12 11:57:16;;;;;;;16.52;9.38;;;;;;;6.64;68.01;101235.88;1710918;82;21097;-58
2021/12/12 12:00:15;;;;;;;15.70;8.48;;;;;;;6.51;67.95;101238.27;1701834;83;21038;-57
2021/12/12 12:03:10;;;;;;;16.07;8.53;;;;;;;6.45;68.15;101241.17;1741281;80;21078;-57
2021/12/12 12:06:02;;;;;;;15.10;7.80;;;;;;;6.32;68.18;101242.22;1739538;80;21569;-58
2021/12/12 12:08:59;;;;;;;12.50;7.17;;;;;;;6.30;68.17;101238.84;1744501;80;21019;-57
2021/12/12 12:11:52;;;;;;;13.40;6.97;;;;;;;6.35;68.30;101235.55;1739809;80;21098;-58
2021/12/12 12:15:03;;;;;;;13.60;7.40;;;;;;;6.42;68.19;101239.58;1739343;80;21310;-57